createdAt,value
2023-03-31T00:23:42.701Z,14.02
2023-03-31T00:52:44.235Z,13.73
2023-03-31T01:21:40.640Z,13.16
2023-03-31T01:50:35.875Z,12.88
2023-03-31T02:19:36.032Z,12.74
2023-03-31T02:48:38.318Z,12.64
2023-03-31T03:17:37.272Z,12.34
2023-03-31T03:46:34.920Z,12.4
2023-03-31T04:15:36.680Z,12.43
2023-03-31T04:44:38.226Z,12.28
2023-03-31T05:13:41.390Z,12.03
2023-03-31T05:42:44.513Z,11.97
2023-03-31T06:11:48.303Z,11.75
2023-03-31T06:40:28.376Z,12.18
2023-03-31T07:09:33.340Z,12.23
2023-03-31T07:38:34.964Z,12.93
2023-03-31T08:07:46.608Z,13.84
2023-03-31T08:36:50.289Z,14.13
2023-03-31T09:06:01.469Z,15.33
2023-03-31T09:34:35.523Z,15.82
2023-03-31T10:03:44.660Z,15.82
2023-03-31T10:32:22.525Z,11.17
2023-03-31T11:01:17.596Z,11.26
2023-03-31T11:30:19.916Z,12.08
2023-03-31T11:59:20.162Z,13.65
2023-03-31T12:28:18.107Z,13.29
2023-03-31T12:57:06.579Z,11.64
2023-03-31T13:26:14.147Z,12.9
2023-03-31T13:55:16.488Z,14.34
2023-03-31T14:23:55.361Z,15.1
2023-03-31T14:52:36.878Z,13.74
2023-03-31T15:21:39.090Z,13.17
2023-03-31T15:50:24.597Z,11.19
2023-03-31T16:19:24.775Z,11.51
2023-03-31T16:48:24.159Z,11.73
2023-03-31T17:17:22.004Z,12.06
2023-03-31T17:46:20.239Z,11.98
2023-03-31T18:15:20.301Z,11.97
2023-03-31T18:44:08.246Z,12.03
2023-03-31T19:13:12.546Z,12.15
2023-03-31T19:42:11.224Z,11.51
2023-03-31T20:11:07.873Z,11.38
2023-03-31T20:39:51.083Z,11.05
2023-03-31T21:08:42.970Z,10.97
2023-03-31T21:37:43.146Z,10.5
2023-03-31T22:06:30.610Z,10.32
2023-03-31T22:35:34.483Z,10.36
2023-03-31T23:04:19.437Z,10.54
2023-03-31T23:33:17.617Z,10.52
